Details From KEMT - El Monte
To KAJO - Corona Muni
Flight Number -
Tags generated
Created
Modified
Stats Distance 24 nm / 45 km
Max Altitude 2,300 ft / 701 m
Waypoints 3
Social Downloads 0
Likes 0
Share

Download

Looking for another format? Having issues loading an existing format? Contact us
Advertisement - Login to hide

Notes

Basic altitude profile: - Ascent Rate: 2500ft/min - Ascent Speed: 96kts - Cruise Altitude: 35000ft - Cruise Speed: 420kts - Descent Rate: 1500ft/min - Descent Speed: 250kts Options: - Use NATs: yes - Use PACOTS: yes - Use low airways: yes - Use high airways: yes

Route

KEMT LAX32 KAJO

ID Type Via Altitude (ft/m) Position (lat/lon) Dist (leg/tot) Name
O KEMT APT - 0 / 0 34.08600 / -118.03484 - / 0 nm El Monte
LAX32 FIX - 2,300 / 701 33.99703 / -117.79060 13 / 13 nm
O KAJO APT - 0 / 0 33.89766 / -117.60243 11 / 24 nm Corona Muni

Altitude Profile

Advertisement - Login to hide

KEMT

Details ICAO KEMT (EMT)
Name El Monte-San Gabriel Valley
Region United States
Timezone America/Los_Angeles (UTC-7.0)
Stats Elevation 296 ft / 90 m (AMSL)
Location 34.086000° -118.035000°
Runways 1
Magnetic Variation 11.565° E

METAR

KEMT 282145Z 21006KT 10SM OVC034 20/12 A2993

Decode

TAF

Not found

Departure Runways

ID Width Length Bearing (true/mag) Surface Threshold Overrun Markings Lighting
01 75 ft / 23 m 4,012 ft / 1,223 m 25.33° / 13.76° ASPHALT 295 ft / 90 m 0 ft / 0 m VISUAL EDGE THRESHOLD
19 75 ft / 23 m 4,012 ft / 1,223 m 205.33° / 193.77° ASPHALT 646 ft / 197 m 0 ft / 0 m VISUAL EDGE THRESHOLD REIL-OMNI

KAJO

Details ICAO KAJO
Name Corona Muni
Region United States
Timezone America/Los_Angeles (UTC-7.0)
Stats Elevation 533 ft / 162 m (AMSL)
Location 33.897700° -117.602000°
Runways 1
Magnetic Variation 11.440° E

METAR

KAJO 282156Z AUTO 24010KT 10SM OVC040 21/12 A2992 RMK AO2 SLP129 T02060122

Decode

TAF

Not found

Destination Runways

ID Width Length Bearing (true/mag) Surface Threshold Overrun Markings Lighting
07 60 ft / 18 m 3,197 ft / 974 m 89.11° / 77.67° ASPHALT 197 ft / 60 m 0 ft / 0 m VISUAL EDGE THRESHOLD
25 60 ft / 18 m 3,197 ft / 974 m 269.11° / 257.67° ASPHALT 200 ft / 61 m 0 ft / 0 m VISUAL EDGE THRESHOLD REIL-UNI

Popular Alternatives